タヒチ島 の空港の天気 - METARとTAF

タヒチ・ファアア国際空港 ( NTAA / PPT ) - フランス領ポリネシア タヒチ島
飛行場実況気象(Metar)
観測時間11/26 23:30 TAHT (11/27 09:30 UTC)
風向・風速東 2m/s
視程10km以上
天気現象
少しの雲 雲底高度 2500m
気温24℃
湿度78%
気圧1014hPa
METARNTAA 270930Z AUTO 10004KT 9999 FEW082 24/20 Q1014 NOSIG
過去の天気等 Google飛行場航空写真 Wunderground天気予報

過去48時間のMETAR

飛行場予報(TAF)
発表時間: 11/26 19:00 TAHT (11/27 05:00 UTC)
予報対象時間: 26日20時 TAHT ~ 28日2時 TAHT
風向・風速不定 3m/s
視程10km以上
少しの雲 雲底高度 700m
全天の4割程度の雲 雲底高度 2440m
TAF NTAA 270500Z 2706/2812 VRB05KT 9999 FEW023 SCT080